Rewey, WI (53580)

11:25 PM CDT die 19o October, anno 2014 (GMT -0500)
Iowa County | Change Station
CLOSE
Current Station
Airport
Location: Mineral Point,
Elevation: 1168 ft
Nearby Weather Stations

Elev 1168 ft 42.89 °N, 90.23 °W | Updated 1 hour ago

Serena
Serena
50 °F
Feels Like 50 °F
N
9
Ventus Variabilis Ventus from Magis Auster quam Zephyrus

Hodie
High -- | Low -- °F
--% Chance of Precip.
Yesterday
High -- | Low -- °F
Precip. -- in
7:19 AM 6:12 PM
Waning Crescent, 13% visible
Pressio 29.85 in
Visibilitas 10.0 milia passuum
Clouds Serena
Frigus in quo Ros apparet 43 °F
Umor 76%
Rainfall 0.00 in
Snow Depth Not available.
UV 0 out of 12
Pollen 1.60 out of 12
Air Quality Not available.
Flu Activity Sporadic
METAR KMRJ 200315Z AUTO 21008KT 10SM CLR 10/06 A2985 RMK AO2

More Conditions Fewer Conditions

Pressio 29.85 in
Visibilitas 10.0 milia passuum
Clouds Serena
Frigus in quo Ros apparet 43 °F
Umor 76%
Rainfall 0.00 in
Snow Depth Not available.
UV 0 out of 12
Pollen 1.60 out of 12
Air Quality Not available.
Flu Activity Sporadic
METAR KMRJ 200315Z AUTO 21008KT 10SM CLR 10/06 A2985 RMK AO2

More Conditions Fewer Conditions

10-Day Weather Forecast

Almanac

Astronomy

Oct. 19, 2014 Rise Set
Actual Time 7:19 AM CDT 6:12 PM CDT
Civil Twilight 6:51 AM CDT 6:41 PM CDT
Nautical Twilight 6:18 AM CDT 7:14 PM CDT
Astronomical Twilight 5:45 AM CDT 7:46 PM CDT
Moon 3:07 AM CDT (10/19) 4:09 PM CDT (10/19)
Length Of Visible Light 11h 50m
Length of Day
10h 52m
Waning Crescent, 13% of the Moon is Illuminated
Oct 20
Waning Crescent
Oct 23
New
Oct 30
First Quarter
Nov 6
Full
Nov 14
Last Quarter

Yesterday's Extremes

State Highs State Lows

Community

WunderPhotos

Upload Photos

1,763,294 photos uploaded!

Nearby

Snow Depth

Station Depth Elevation
No new snow has been reported.

Earthquake Activity

City Distance Mag. Time & Date
No recent earthquake activity has been reported nearby.
Minimum magnitude displayed is 2.5.

Coastal Water Temperatures

Locus Calor
No Stations Reporting

Nearby Weather Stations